Time;durP1;ratioP1;P1;durP2;ratioP2;P2;SDS_P1;SDS_P2;PMS_P1;PMS_P2;Temp;Humidity;BMP_temperature;BMP_pressure;BME280_temperature;BME280_humidity;BME280_pressure;Samples;Min_cycle;Max_cycle;Signal;HPM_P1;HPM_P2
2021/10/20 00:00:38;;;;;;;48.97;23.65;;;15.70;99.90;;;;;;5050063;28;20132;-84
2021/10/20 00:03:05;;;;;;;51.05;24.05;;;15.80;99.90;;;;;;5037357;28;20045;-84
2021/10/20 00:05:34;;;;;;;52.92;23.80;;;15.80;99.90;;;;;;5039082;28;20063;-85
2021/10/20 00:08:03;;;;;;;46.75;22.92;;;15.80;99.90;;;;;;5049227;28;20103;-84
2021/10/20 00:10:30;;;;;;;52.45;22.80;;;15.80;99.90;;;;;;5038457;28;20674;-84
2021/10/20 00:12:56;;;;;;;53.70;23.70;;;15.70;99.90;;;;;;5048149;28;20088;-84
2021/10/20 00:15:23;;;;;;;48.42;23.95;;;15.80;99.90;;;;;;5050146;28;20442;-84
2021/10/20 00:17:51;;;;;;;47.30;22.67;;;15.80;99.90;;;;;;5029520;28;20438;-84
2021/10/20 00:20:22;;;;;;;48.53;22.92;;;15.80;99.90;;;;;;5036946;28;20085;-84
2021/10/20 00:22:50;;;;;;;53.20;23.00;;;15.90;99.90;;;;;;5040104;28;20505;-84
2021/10/20 00:25:17;;;;;;;41.97;20.85;;;15.80;99.90;;;;;;5062021;28;20124;-84
2021/10/20 00:27:45;;;;;;;45.85;21.30;;;15.90;99.90;;;;;;5029672;28;20125;-85
2021/10/20 00:30:14;;;;;;;43.28;21.05;;;15.80;99.90;;;;;;5041315;28;20128;-84
2021/10/20 00:32:41;;;;;;;46.15;22.00;;;15.90;99.90;;;;;;5045610;28;20529;-84
2021/10/20 00:35:10;;;;;;;41.30;20.98;;;15.90;99.90;;;;;;5044393;28;20083;-84
2021/10/20 00:37:38;;;;;;;39.97;20.63;;;15.90;99.90;;;;;;5053427;28;20092;-83
2021/10/20 00:40:06;;;;;;;40.05;21.02;;;15.90;99.90;;;;;;5053650;28;20077;-84
2021/10/20 00:42:33;;;;;;;42.20;21.52;;;15.90;99.90;;;;;;5052327;28;20136;-83
2021/10/20 00:45:02;;;;;;;42.58;21.55;;;15.90;99.90;;;;;;5052702;28;20084;-84
2021/10/20 00:47:30;;;;;;;43.25;21.27;;;16.00;99.90;;;;;;5044912;28;20080;-84
2021/10/20 00:49:57;;;;;;;38.00;21.73;;;16.00;99.90;;;;;;5044913;28;20139;-83
2021/10/20 00:52:25;;;;;;;38.75;19.45;;;16.00;99.90;;;;;;5033421;28;20089;-83
2021/10/20 00:54:55;;;;;;;35.50;18.73;;;16.00;99.90;;;;;;5052689;28;20075;-82
2021/10/20 00:57:23;;;;;;;35.42;18.77;;;16.00;99.90;;;;;;5053856;28;20083;-83
2021/10/20 00:59:52;;;;;;;36.45;19.27;;;16.00;99.90;;;;;;5048785;28;20124;-83
2021/10/20 01:02:19;;;;;;;38.67;18.17;;;16.00;99.90;;;;;;5040852;28;20901;-83
2021/10/20 01:04:49;;;;;;;34.72;17.77;;;15.90;99.90;;;;;;5053436;28;20049;-84
2021/10/20 01:07:17;;;;;;;32.60;17.55;;;16.00;99.90;;;;;;5045478;28;20124;-84
2021/10/20 01:09:45;;;;;;;32.58;17.95;;;15.90;99.90;;;;;;5049026;28;20057;-85
2021/10/20 01:12:14;;;;;;;34.45;16.75;;;15.90;99.90;;;;;;5043296;28;20087;-84
2021/10/20 01:14:43;;;;;;;34.63;17.05;;;15.90;99.90;;;;;;5055335;28;20103;-84
2021/10/20 01:17:12;;;;;;;36.50;17.23;;;15.90;99.90;;;;;;5045238;28;20175;-84
2021/10/20 01:19:41;;;;;;;35.17;18.45;;;15.90;99.90;;;;;;5047254;28;20124;-83
2021/10/20 01:22:08;;;;;;;30.13;16.83;;;15.90;99.90;;;;;;5044663;28;20140;-82
2021/10/20 01:24:34;;;;;;;29.35;16.40;;;15.90;99.90;;;;;;5050385;28;20190;-85
2021/10/20 01:27:09;;;;;;;33.50;16.88;;;15.90;99.90;;;;;;5051818;28;20155;-83
2021/10/20 01:29:35;;;;;;;32.72;16.92;;;15.90;99.90;;;;;;5050341;28;20132;-84
2021/10/20 01:32:05;;;;;;;32.80;18.38;;;15.80;99.90;;;;;;5032012;28;20136;-83
2021/10/20 01:34:34;;;;;;;38.88;17.60;;;15.80;99.90;;;;;;5032980;28;20256;-83
2021/10/20 01:37:02;;;;;;;33.25;17.42;;;15.90;99.90;;;;;;5042284;28;20094;-83
2021/10/20 01:39:29;;;;;;;35.67;16.60;;;15.80;99.90;;;;;;5048555;28;20119;-83
2021/10/20 01:41:56;;;;;;;32.38;16.63;;;15.80;99.90;;;;;;5042740;28;20486;-83
2021/10/20 01:44:23;;;;;;;33.78;17.17;;;15.80;99.90;;;;;;5042868;28;20045;-82
2021/10/20 01:46:50;;;;;;;31.42;17.00;;;15.80;99.90;;;;;;5043741;28;20077;-82
2021/10/20 01:49:17;;;;;;;29.30;16.17;;;15.80;99.90;;;;;;5030630;28;20045;-82
2021/10/20 01:51:44;;;;;;;37.75;17.92;;;15.70;99.90;;;;;;5037850;28;20079;-82
2021/10/20 01:54:12;;;;;;;36.95;16.75;;;15.80;99.90;;;;;;5043215;28;20132;-82
2021/10/20 01:56:39;;;;;;;33.40;16.80;;;15.80;99.90;;;;;;5037138;28;20079;-83
2021/10/20 01:59:08;;;;;;;28.35;15.95;;;15.70;99.90;;;;;;5050471;28;20072;-82
2021/10/20 02:01:35;;;;;;;28.33;15.60;;;15.70;99.90;;;;;;5051628;28;20137;-82
2021/10/20 02:04:07;;;;;;;26.67;14.98;;;15.70;99.90;;;;;;5040492;28;20045;-82
2021/10/20 02:06:34;;;;;;;25.55;13.95;;;15.60;99.90;;;;;;5032917;28;20132;-82
2021/10/20 02:09:08;;;;;;;28.83;15.10;;;15.60;99.90;;;;;;5047885;28;20076;-83
2021/10/20 02:11:37;;;;;;;27.97;14.90;;;15.60;99.90;;;;;;5057368;28;20076;-83
2021/10/20 02:14:06;;;;;;;24.88;14.18;;;15.60;99.90;;;;;;5052579;28;20084;-83
2021/10/20 02:16:41;;;;;;;25.45;13.32;;;15.60;99.90;;;;;;5053124;28;20136;-82
2021/10/20 02:19:08;;;;;;;29.10;14.18;;;15.50;99.90;;;;;;5048125;28;20073;-82
2021/10/20 02:21:36;;;;;;;26.75;13.60;;;15.50;99.90;;;;;;5051854;28;20053;-82
2021/10/20 02:24:03;;;;;;;23.50;12.63;;;15.50;99.90;;;;;;5051462;28;20114;-83
2021/10/20 02:26:30;;;;;;;31.95;13.45;;;15.40;99.90;;;;;;5052599;28;20072;-82
2021/10/20 02:28:57;;;;;;;29.77;13.55;;;15.30;99.90;;;;;;5051975;28;20084;-83
2021/10/20 02:31:24;;;;;;;31.77;15.25;;;15.30;99.90;;;;;;5048344;28;20103;-83
2021/10/20 02:33:51;;;;;;;27.85;13.90;;;15.30;99.90;;;;;;5044536;28;20049;-82
2021/10/20 02:36:18;;;;;;;24.17;13.68;;;15.30;99.90;;;;;;5033713;28;20144;-82
2021/10/20 02:38:44;;;;;;;22.67;12.70;;;15.30;99.90;;;;;;5033465;28;20081;-82
2021/10/20 02:41:11;;;;;;;25.27;13.38;;;15.20;99.90;;;;;;5035592;28;20445;-82
2021/10/20 02:43:39;;;;;;;25.42;13.57;;;15.20;99.90;;;;;;5038992;28;20049;-82
2021/10/20 02:46:06;;;;;;;22.85;12.23;;;15.20;99.90;;;;;;5032447;28;20394;-82
2021/10/20 02:48:35;;;;;;;27.05;12.63;;;15.20;99.90;;;;;;5038508;28;20128;-82
2021/10/20 02:51:02;;;;;;;21.90;12.07;;;15.10;99.90;;;;;;5050438;28;20080;-83
2021/10/20 02:53:28;;;;;;;27.65;12.27;;;15.10;99.90;;;;;;5050214;28;20139;-82
2021/10/20 02:55:55;;;;;;;24.30;12.18;;;15.10;99.90;;;;;;5064676;28;20492;-82
2021/10/20 02:58:22;;;;;;;26.02;12.02;;;15.10;99.90;;;;;;5046463;28;20079;-82
2021/10/20 03:00:49;;;;;;;22.13;12.07;;;15.00;99.90;;;;;;5049257;28;20079;-82
2021/10/20 03:03:16;;;;;;;23.38;11.82;;;15.00;99.90;;;;;;5041633;28;20048;-82
2021/10/20 03:05:47;;;;;;;28.20;12.18;;;15.00;99.90;;;;;;5049605;28;20087;-83
2021/10/20 03:08:13;;;;;;;24.67;11.93;;;15.00;99.90;;;;;;5043549;28;20137;-83
2021/10/20 03:10:40;;;;;;;22.25;11.55;;;15.00;99.90;;;;;;5036194;28;20081;-82
2021/10/20 03:13:10;;;;;;;23.85;11.63;;;15.00;99.90;;;;;;5050436;28;20140;-82
2021/10/20 03:15:37;;;;;;;27.17;12.63;;;15.00;99.90;;;;;;5049411;28;20103;-82
2021/10/20 03:18:05;;;;;;;28.40;12.32;;;14.90;99.90;;;;;;5048572;28;20745;-82
2021/10/20 03:20:31;;;;;;;23.15;11.88;;;14.90;99.90;;;;;;5050978;28;20528;-83
2021/10/20 03:22:58;;;;;;;20.67;11.20;;;14.90;99.90;;;;;;5049970;28;20155;-82
2021/10/20 03:25:26;;;;;;;22.30;11.75;;;14.90;99.90;;;;;;5050428;28;20103;-82
2021/10/20 03:27:53;;;;;;;26.17;12.32;;;14.90;99.90;;;;;;5038786;28;20106;-82
2021/10/20 03:30:23;;;;;;;18.20;10.75;;;14.90;99.90;;;;;;5038519;28;20076;-82
2021/10/20 03:32:50;;;;;;;21.38;11.68;;;15.00;99.90;;;;;;5040288;28;20570;-82
2021/10/20 03:35:17;;;;;;;18.73;10.68;;;15.00;99.90;;;;;;5029353;28;20092;-82
2021/10/20 03:37:45;;;;;;;18.83;11.25;;;15.00;99.90;;;;;;5043244;28;20151;-81
2021/10/20 03:40:13;;;;;;;17.98;10.82;;;15.00;99.90;;;;;;5046931;28;20095;-81
2021/10/20 03:42:41;;;;;;;22.13;12.13;;;15.00;99.90;;;;;;5046121;28;20037;-81
2021/10/20 03:45:09;;;;;;;18.60;11.05;;;14.90;99.90;;;;;;5048708;28;20079;-81
2021/10/20 03:47:36;;;;;;;21.95;11.60;;;15.00;99.90;;;;;;5035074;28;20470;-81
2021/10/20 03:50:03;;;;;;;18.58;9.88;;;14.90;99.90;;;;;;5030452;28;20048;-81
2021/10/20 03:52:30;;;;;;;21.80;11.30;;;14.90;99.90;;;;;;5048444;28;20163;-81
2021/10/20 03:54:58;;;;;;;17.85;10.23;;;14.80;99.90;;;;;;5051114;28;20073;-82
2021/10/20 03:57:25;;;;;;;18.60;11.15;;;14.90;99.90;;;;;;5049760;28;20745;-82
2021/10/20 03:59:52;;;;;;;18.33;10.57;;;14.90;99.90;;;;;;5044855;28;20049;-81
2021/10/20 04:02:18;;;;;;;23.55;10.82;;;14.80;99.90;;;;;;5044186;28;20128;-81
2021/10/20 04:04:45;;;;;;;20.08;10.93;;;14.80;99.90;;;;;;5049575;28;20045;-82
2021/10/20 04:07:12;;;;;;;19.13;10.68;;;14.80;99.90;;;;;;5031546;28;20132;-82
2021/10/20 04:09:39;;;;;;;17.48;10.60;;;14.80;99.90;;;;;;5044369;28;20528;-81
2021/10/20 04:12:06;;;;;;;16.98;10.98;;;14.80;99.90;;;;;;5051925;28;20083;-82
2021/10/20 04:14:32;;;;;;;21.02;10.80;;;14.70;99.90;;;;;;5051730;28;20177;-81
2021/10/20 04:16:59;;;;;;;40.22;18.95;;;14.70;99.90;;;;;;5053402;28;20136;-81
2021/10/20 04:19:28;;;;;;;22.92;10.77;;;14.70;99.90;;;;;;5040536;28;20053;-81
2021/10/20 04:21:54;;;;;;;21.67;11.82;;;14.70;99.90;;;;;;5039540;28;20743;-81
2021/10/20 04:24:21;;;;;;;21.83;11.48;;;14.60;99.90;;;;;;5039076;28;20038;-81
2021/10/20 04:26:48;;;;;;;19.63;11.23;;;14.60;99.90;;;;;;5043537;28;20474;-81
2021/10/20 04:29:14;;;;;;;18.67;10.57;;;14.60;99.90;;;;;;5050113;28;20072;-81
2021/10/20 04:31:42;;;;;;;22.60;10.52;;;14.60;99.90;;;;;;5049529;28;20124;-81
2021/10/20 04:34:10;;;;;;;22.70;11.88;;;14.50;99.90;;;;;;5050727;28;20139;-82
2021/10/20 04:36:36;;;;;;;23.42;11.38;;;14.60;99.90;;;;;;5038593;28;20144;-81
2021/10/20 04:39:03;;;;;;;20.23;10.93;;;14.50;99.90;;;;;;5045192;28;20076;-82
2021/10/20 04:41:30;;;;;;;19.33;10.95;;;14.50;99.90;;;;;;5047025;28;20080;-82
2021/10/20 04:43:57;;;;;;;20.50;11.15;;;14.50;99.90;;;;;;5047784;28;20712;-81
2021/10/20 04:46:23;;;;;;;22.08;11.75;;;14.40;99.90;;;;;;5038048;28;20099;-79
2021/10/20 04:48:51;;;;;;;21.65;11.00;;;14.40;99.90;;;;;;5041526;28;20632;-83
2021/10/20 04:51:18;;;;;;;23.20;11.07;;;14.50;99.90;;;;;;5046654;28;20659;-84
2021/10/20 04:53:44;;;;;;;25.95;11.63;;;14.40;99.90;;;;;;5052713;28;20080;-83
2021/10/20 04:56:11;;;;;;;20.60;11.80;;;14.50;99.90;;;;;;5039905;28;20155;-80
2021/10/20 04:58:38;;;;;;;25.73;11.60;;;14.50;99.90;;;;;;5045279;28;20080;-80
2021/10/20 05:01:05;;;;;;;15.70;10.43;;;14.50;99.90;;;;;;5047677;28;20136;-79
2021/10/20 05:03:32;;;;;;;18.02;10.63;;;14.50;99.90;;;;;;5032466;28;20052;-79
2021/10/20 05:05:58;;;;;;;19.45;11.45;;;14.50;99.90;;;;;;5038877;28;20060;-79
2021/10/20 05:08:25;;;;;;;20.63;12.25;;;14.60;99.90;;;;;;5047973;28;20053;-80
2021/10/20 05:10:53;;;;;;;19.30;9.43;;;14.50;99.90;;;;;;5040713;28;20498;-79
2021/10/20 05:13:20;;;;;;;18.27;10.05;;;14.50;99.90;;;;;;5047960;28;20057;-80
2021/10/20 05:15:47;;;;;;;19.38;10.07;;;14.60;99.90;;;;;;5034142;28;20081;-79
2021/10/20 05:18:13;;;;;;;17.25;10.07;;;14.60;99.90;;;;;;5042678;28;20564;-79
2021/10/20 05:20:40;;;;;;;15.63;10.07;;;14.60;99.90;;;;;;5047648;28;20537;-81
2021/10/20 05:23:10;;;;;;;22.67;9.93;;;14.60;99.90;;;;;;5048195;28;20083;-81
2021/10/20 05:25:38;;;;;;;18.67;10.15;;;14.60;99.90;;;;;;5049635;28;20076;-80
2021/10/20 05:28:06;;;;;;;16.67;9.88;;;14.60;99.90;;;;;;5045213;28;20140;-84
2021/10/20 05:30:34;;;;;;;18.23;9.98;;;14.60;99.90;;;;;;5050505;28;20565;-85
2021/10/20 05:33:01;;;;;;;17.73;10.07;;;14.60;99.90;;;;;;5052665;28;20495;-85
2021/10/20 05:35:27;;;;;;;17.48;9.82;;;14.50;99.90;;;;;;5041266;28;20061;-87
2021/10/20 05:37:54;;;;;;;15.18;9.50;;;14.50;99.90;;;;;;5046412;28;20077;-82
2021/10/20 05:40:23;;;;;;;21.52;10.07;;;14.60;99.90;;;;;;5049939;28;20064;-81
2021/10/20 05:42:53;;;;;;;20.73;9.98;;;14.60;99.90;;;;;;5048523;28;20130;-80
2021/10/20 05:45:20;;;;;;;17.58;9.48;;;14.60;99.90;;;;;;5048499;28;20045;-81
2021/10/20 05:47:46;;;;;;;16.75;9.27;;;14.60;99.90;;;;;;5048884;28;20534;-80
2021/10/20 05:50:15;;;;;;;15.20;9.32;;;14.70;99.90;;;;;;5050173;28;20045;-79
2021/10/20 05:52:44;;;;;;;14.63;9.13;;;14.60;99.90;;;;;;5047727;28;20398;-80
2021/10/20 05:55:12;;;;;;;17.52;8.68;;;14.70;99.90;;;;;;5050622;28;20508;-80
2021/10/20 05:57:39;;;;;;;16.23;8.52;;;14.70;99.90;;;;;;5051019;28;20474;-80
2021/10/20 06:00:11;;;;;;;12.68;8.00;;;14.80;99.90;;;;;;5048430;28;20104;-80
2021/10/20 06:02:38;;;;;;;17.60;7.88;;;14.70;99.90;;;;;;5044349;28;20069;-80
2021/10/20 06:05:06;;;;;;;14.65;8.43;;;14.70;99.90;;;;;;5052830;28;20049;-80
2021/10/20 16:14:11;;;;;;;9.05;6.18;;;16.80;99.90;;;;;;5099559;27;20461;-77
2021/10/20 16:16:38;;;;;;;15.50;6.65;;;17.00;99.90;;;;;;5106614;28;20146;-78
2021/10/20 16:19:08;;;;;;;16.55;6.28;;;17.20;99.90;;;;;;5103248;28;20540;-79
2021/10/20 16:21:35;;;;;;;9.30;5.80;;;17.40;99.90;;;;;;5101542;28;20071;-79
2021/10/20 16:24:02;;;;;;;10.60;6.10;;;17.50;99.90;;;;;;5102530;28;20063;-78
2021/10/20 16:26:28;;;;;;;12.90;5.90;;;17.50;99.90;;;;;;5103695;28;20127;-78
2021/10/20 16:28:55;;;;;;;10.23;5.63;;;17.40;99.90;;;;;;5100833;28;20044;-78
2021/10/20 16:31:23;;;;;;;9.10;6.30;;;17.50;99.90;;;;;;5101370;28;20048;-78
2021/10/20 16:33:51;;;;;;;12.00;6.35;;;17.40;99.90;;;;;;5102714;28;20054;-78
2021/10/20 16:36:20;;;;;;;8.82;6.13;;;17.30;99.90;;;;;;5103998;28;20155;-77
2021/10/20 16:38:47;;;;;;;12.82;6.55;;;17.30;99.90;;;;;;5101884;28;20050;-76
2021/10/20 16:41:13;;;;;;;10.50;6.07;;;17.20;99.90;;;;;;5102589;28;20043;-78
2021/10/20 16:43:40;;;;;;;16.83;6.47;;;17.20;99.90;;;;;;5102572;28;20123;-77
2021/10/20 16:46:07;;;;;;;10.60;6.38;;;17.20;99.90;;;;;;5103084;28;20140;-77
2021/10/20 16:48:35;;;;;;;11.98;6.53;;;17.20;99.90;;;;;;5104035;28;20134;-79
2021/10/20 16:51:05;;;;;;;11.13;6.30;;;17.20;99.90;;;;;;5100126;28;20702;-78
2021/10/20 16:53:31;;;;;;;13.38;6.97;;;17.30;99.90;;;;;;5100484;28;20093;-76
2021/10/20 16:55:58;;;;;;;12.27;5.80;;;17.20;99.90;;;;;;5101565;28;20131;-75
2021/10/20 16:58:25;;;;;;;9.88;6.47;;;17.20;99.90;;;;;;5099849;28;20065;-75
2021/10/20 17:00:52;;;;;;;10.98;5.72;;;17.10;99.90;;;;;;5101665;28;20747;-75
2021/10/20 17:03:19;;;;;;;14.25;6.25;;;17.10;99.90;;;;;;5098386;28;20047;-73
2021/10/20 17:05:46;;;;;;;12.80;6.82;;;17.20;99.90;;;;;;5101092;28;20043;-75
2021/10/20 17:08:13;;;;;;;10.07;6.28;;;17.20;99.90;;;;;;5102162;28;20124;-74
2021/10/20 17:10:50;;;;;;;11.55;6.68;;;17.20;99.90;;;;;;5103102;28;20048;-73
2021/10/20 17:13:21;;;;;;;10.68;6.68;;;17.30;99.90;;;;;;5101353;28;20055;-74
2021/10/20 17:15:49;;;;;;;12.77;6.05;;;17.30;99.90;;;;;;5101148;28;20670;-74
2021/10/20 17:18:16;;;;;;;8.05;5.85;;;17.20;99.90;;;;;;5100950;28;20046;-74
2021/10/20 17:20:43;;;;;;;19.85;6.35;;;17.30;99.90;;;;;;5098128;28;20051;-73
2021/10/20 17:23:11;;;;;;;8.93;5.97;;;17.30;99.90;;;;;;5099172;28;20051;-73
2021/10/20 17:25:39;;;;;;;10.45;6.18;;;17.20;99.90;;;;;;5086996;28;20063;-74
2021/10/20 17:28:06;;;;;;;11.13;6.22;;;17.20;99.90;;;;;;5092979;28;20158;-73
2021/10/20 17:30:33;;;;;;;11.20;5.80;;;17.20;99.90;;;;;;5082378;28;20087;-74
2021/10/20 17:33:10;;;;;;;13.13;7.18;;;17.10;99.90;;;;;;5086818;28;20051;-73
2021/10/20 17:35:37;;;;;;;11.07;5.60;;;17.00;99.90;;;;;;5090837;28;20527;-75
2021/10/20 17:38:05;;;;;;;16.48;6.70;;;16.90;99.90;;;;;;5093394;28;20138;-75
2021/10/20 17:40:32;;;;;;;10.32;6.85;;;17.00;99.90;;;;;;5093605;28;20496;-74
2021/10/20 17:42:59;;;;;;;11.32;5.78;;;17.00;99.90;;;;;;5087778;28;20080;-74
2021/10/20 17:45:26;;;;;;;11.65;6.95;;;17.00;99.90;;;;;;5089055;28;20054;-74
2021/10/20 17:47:55;;;;;;;10.27;6.07;;;16.90;99.90;;;;;;5084887;28;20048;-75
2021/10/20 17:50:23;;;;;;;11.93;6.57;;;16.90;99.90;;;;;;5085817;28;20056;-74
2021/10/20 17:52:49;;;;;;;9.73;6.22;;;16.90;99.90;;;;;;5089127;28;20121;-75
2021/10/20 17:55:16;;;;;;;12.50;6.15;;;16.80;99.90;;;;;;5085530;28;20126;-75
2021/10/20 17:57:43;;;;;;;10.32;5.72;;;16.90;99.90;;;;;;5084565;28;20462;-75
2021/10/20 18:00:11;;;;;;;13.50;6.50;;;16.80;99.90;;;;;;5086297;28;20080;-75
2021/10/20 18:02:43;;;;;;;15.38;6.05;;;16.90;99.90;;;;;;5084831;28;20484;-75
2021/10/20 18:05:12;;;;;;;11.40;6.57;;;16.80;99.90;;;;;;5085095;28;20575;-75
2021/10/20 18:07:40;;;;;;;10.93;6.57;;;16.80;99.90;;;;;;5092705;28;20775;-75
2021/10/20 18:10:07;;;;;;;10.15;6.38;;;16.90;99.90;;;;;;5094650;28;20657;-75
2021/10/20 18:12:35;;;;;;;13.82;6.95;;;16.90;99.90;;;;;;5080362;28;20795;-75
2021/10/20 18:15:02;;;;;;;9.15;6.35;;;16.90;99.90;;;;;;5093575;28;20123;-75
2021/10/20 18:17:30;;;;;;;18.25;6.35;;;16.90;99.90;;;;;;5088372;28;20076;-75
2021/10/20 18:20:15;;;;;;;10.90;6.32;;;16.90;99.90;;;;;;5084559;28;20851;-75
2021/10/20 18:22:44;;;;;;;11.38;6.13;;;16.90;99.90;;;;;;5085222;28;20167;-75
2021/10/20 18:25:13;;;;;;;9.65;6.50;;;16.80;99.90;;;;;;5085122;28;20494;-76
2021/10/20 18:27:42;;;;;;;11.00;7.65;;;16.80;99.90;;;;;;5085398;28;20526;-75
2021/10/20 18:30:16;;;;;;;10.68;6.15;;;16.80;99.90;;;;;;5085407;28;20044;-75
2021/10/20 18:32:44;;;;;;;12.88;7.07;;;16.80;99.90;;;;;;5082669;28;20052;-75
2021/10/20 18:35:12;;;;;;;9.45;6.40;;;16.80;99.90;;;;;;5092542;28;20139;-74
2021/10/20 18:37:38;;;;;;;16.17;7.22;;;16.80;99.90;;;;;;5087086;28;20071;-74
2021/10/20 18:40:07;;;;;;;14.82;6.07;;;16.70;99.90;;;;;;5083971;28;20159;-74
2021/10/20 18:42:38;;;;;;;8.90;6.68;;;16.60;99.90;;;;;;5093790;28;20046;-74
2021/10/20 18:45:07;;;;;;;12.40;6.47;;;16.60;99.90;;;;;;5088043;28;20891;-74
2021/10/20 18:47:35;;;;;;;10.73;6.22;;;16.70;99.90;;;;;;5087785;28;20154;-74
2021/10/20 18:50:03;;;;;;;14.43;6.40;;;16.60;99.90;;;;;;5085596;28;20073;-74
2021/10/20 18:52:30;;;;;;;12.10;6.60;;;16.60;99.90;;;;;;5084960;28;20086;-74
2021/10/20 18:54:58;;;;;;;9.70;6.15;;;16.70;99.90;;;;;;5086143;28;20190;-75
2021/10/20 18:57:25;;;;;;;10.45;5.90;;;16.80;99.90;;;;;;5083884;28;20079;-74
2021/10/20 18:59:51;;;;;;;14.70;6.93;;;16.80;99.90;;;;;;5084343;28;20155;-74
2021/10/20 19:02:19;;;;;;;9.43;6.38;;;16.80;99.90;;;;;;5084131;28;20044;-74
2021/10/20 19:04:46;;;;;;;10.52;5.88;;;16.80;99.90;;;;;;5088848;28;20051;-74
2021/10/20 19:07:13;;;;;;;8.77;5.50;;;16.80;99.90;;;;;;5092019;28;20052;-74
2021/10/20 19:12:26;;;;;;;9.85;6.45;;;16.90;99.90;;;;;;4992434;28;20042;-74
2021/10/20 19:15:13;;;;;;;11.68;6.10;;;16.90;99.90;;;;;;4997941;28;20049;-74
2021/10/20 19:17:41;;;;;;;14.43;6.13;;;16.90;99.90;;;;;;4990691;28;20104;-74
2021/10/20 19:20:08;;;;;;;10.40;5.90;;;16.90;99.90;;;;;;5003081;28;20069;-74
2021/10/20 19:22:35;;;;;;;10.35;6.03;;;16.90;99.90;;;;;;5002413;28;20188;-74
2021/10/20 19:25:08;;;;;;;11.27;5.90;;;16.90;99.90;;;;;;5002278;28;20554;-75
2021/10/20 19:27:35;;;;;;;11.32;6.55;;;16.90;99.90;;;;;;5006218;28;20056;-77
2021/10/20 19:30:03;;;;;;;13.43;7.05;;;17.00;99.90;;;;;;5005386;28;20050;-77
2021/10/20 19:32:30;;;;;;;12.38;6.55;;;16.90;99.90;;;;;;5006777;28;20136;-77
2021/10/20 19:34:57;;;;;;;12.00;6.35;;;16.90;99.90;;;;;;5005896;28;20054;-77
2021/10/20 19:37:25;;;;;;;9.90;6.22;;;16.90;99.90;;;;;;5004621;28;20120;-77
2021/10/20 19:39:52;;;;;;;11.05;6.93;;;16.80;99.90;;;;;;5006469;28;20085;-77
2021/10/20 19:42:23;;;;;;;13.13;7.57;;;16.80;99.90;;;;;;5007023;28;20526;-77
2021/10/20 19:44:49;;;;;;;12.23;6.45;;;16.80;99.90;;;;;;5005096;28;20843;-77
2021/10/20 19:47:16;;;;;;;12.55;7.53;;;16.70;99.90;;;;;;4996596;28;20578;-77
2021/10/20 19:49:44;;;;;;;10.38;6.63;;;16.60;99.90;;;;;;5004301;28;20061;-77
2021/10/20 19:52:11;;;;;;;11.80;6.95;;;16.80;99.90;;;;;;5032656;23;20137;-74
2021/10/20 19:54:38;;;;;;;11.50;7.05;;;16.80;99.90;;;;;;5046403;28;20684;-74
2021/10/20 19:57:05;;;;;;;13.55;7.07;;;16.70;99.90;;;;;;5042481;28;20132;-74
2021/10/20 19:59:32;;;;;;;10.20;6.28;;;16.60;99.90;;;;;;5042822;28;20195;-74
2021/10/20 20:01:59;;;;;;;10.57;6.70;;;16.50;99.90;;;;;;5033991;28;20053;-75
2021/10/20 20:04:26;;;;;;;14.50;6.75;;;16.50;99.90;;;;;;5044790;28;20045;-75
2021/10/20 20:06:53;;;;;;;13.70;6.20;;;16.50;99.90;;;;;;5028331;28;20040;-75
2021/10/20 20:09:20;;;;;;;16.42;6.88;;;16.40;99.90;;;;;;5047573;28;20076;-74
2021/10/20 20:11:48;;;;;;;9.68;6.28;;;16.40;99.90;;;;;;5043721;28;20063;-74
2021/10/20 20:14:15;;;;;;;13.55;7.15;;;16.20;99.90;;;;;;5043787;28;20655;-74
2021/10/20 20:16:44;;;;;;;9.30;6.95;;;16.20;99.90;;;;;;5045963;28;20159;-75
2021/10/20 20:19:11;;;;;;;11.02;7.32;;;16.10;99.90;;;;;;5035774;28;20526;-74
2021/10/20 20:21:41;;;;;;;9.88;5.93;;;16.10;99.90;;;;;;5043796;28;20686;-75
2021/10/20 20:24:09;;;;;;;8.00;5.38;;;16.00;99.90;;;;;;5043532;28;20772;-75
2021/10/20 20:26:38;;;;;;;14.02;6.13;;;16.10;99.90;;;;;;5044695;28;20175;-75
2021/10/20 20:29:06;;;;;;;8.40;5.68;;;16.20;99.90;;;;;;5056268;28;20140;-75
2021/10/20 20:31:35;;;;;;;10.52;5.65;;;16.10;99.90;;;;;;5041459;28;20586;-75
2021/10/20 20:34:04;;;;;;;8.48;4.55;;;16.00;99.90;;;;;;5048653;28;20744;-75
2021/10/20 20:36:34;;;;;;;8.10;4.35;;;16.00;99.90;;;;;;5046923;28;20112;-75
2021/10/20 20:39:03;;;;;;;10.05;5.22;;;15.90;99.90;;;;;;5046999;28;20084;-75
2021/10/20 20:41:31;;;;;;;9.02;3.50;;;15.90;99.90;;;;;;5042608;28;20409;-75
2021/10/20 20:43:58;;;;;;;6.10;3.65;;;15.80;99.90;;;;;;5042081;28;20139;-75
2021/10/20 20:46:25;;;;;;;3.47;2.75;;;15.80;99.90;;;;;;5043105;28;20156;-74
2021/10/20 20:48:53;;;;;;;3.75;2.65;;;15.80;99.90;;;;;;5043204;28;20053;-75
2021/10/20 20:51:20;;;;;;;7.78;2.30;;;15.80;99.90;;;;;;5042788;28;20460;-74
2021/10/20 20:53:47;;;;;;;5.88;2.47;;;15.70;99.90;;;;;;5050059;28;20033;-75
2021/10/20 20:56:13;;;;;;;4.63;1.83;;;15.70;99.90;;;;;;5042935;28;20425;-75
2021/10/20 20:58:40;;;;;;;4.40;2.30;;;15.60;99.90;;;;;;5044133;28;20159;-75
2021/10/20 21:01:07;;;;;;;5.78;1.90;;;15.70;99.90;;;;;;5047092;28;20148;-75
2021/10/20 21:03:34;;;;;;;3.42;1.90;;;15.70;99.90;;;;;;5047459;28;20061;-75
2021/10/20 21:06:01;;;;;;;3.03;1.85;;;15.60;99.90;;;;;;5036257;28;20088;-75
2021/10/20 21:08:28;;;;;;;7.90;2.00;;;15.60;99.90;;;;;;5047083;28;20134;-75
2021/10/20 21:10:55;;;;;;;3.15;2.17;;;15.60;99.90;;;;;;5029972;28;20056;-75
2021/10/20 21:13:24;;;;;;;4.43;1.90;;;15.50;99.90;;;;;;5052175;28;20127;-75
2021/10/20 21:15:51;;;;;;;5.07;2.15;;;15.50;99.90;;;;;;5046930;28;20457;-75
2021/10/20 21:18:18;;;;;;;6.82;2.08;;;15.50;99.90;;;;;;5059361;28;20135;-75
2021/10/20 21:20:45;;;;;;;5.18;2.10;;;15.40;99.90;;;;;;5029124;28;20148;-76
2021/10/20 21:23:12;;;;;;;4.97;2.33;;;15.20;99.90;;;;;;5031955;28;20467;-76
2021/10/20 21:25:39;;;;;;;5.88;2.30;;;15.00;99.90;;;;;;5046724;28;20102;-77
2021/10/20 21:28:06;;;;;;;5.65;2.20;;;14.90;99.90;;;;;;5048104;28;20076;-77
2021/10/20 21:30:36;;;;;;;5.07;2.47;;;14.80;99.90;;;;;;5047419;28;20111;-77
2021/10/20 21:33:04;;;;;;;6.35;2.42;;;14.70;99.90;;;;;;5052479;28;20456;-77
2021/10/20 21:35:32;;;;;;;4.85;2.58;;;14.50;99.90;;;;;;5047971;28;20420;-77
2021/10/20 21:37:59;;;;;;;4.18;2.30;;;14.50;99.90;;;;;;5034176;28;20119;-77
2021/10/20 21:40:26;;;;;;;6.03;2.08;;;14.50;99.90;;;;;;5046057;28;20084;-77
2021/10/20 21:42:53;;;;;;;4.90;1.70;;;14.40;99.90;;;;;;5053045;28;20087;-77
2021/10/20 21:45:20;;;;;;;2.42;1.45;;;14.40;99.90;;;;;;5029419;28;20136;-77
2021/10/20 21:47:48;;;;;;;3.15;2.00;;;14.40;99.90;;;;;;5060721;28;20239;-77
2021/10/20 21:50:18;;;;;;;4.20;1.40;;;14.40;99.90;;;;;;5061595;28;20080;-77
2021/10/20 21:52:45;;;;;;;3.47;1.55;;;14.40;99.90;;;;;;5046535;28;20048;-76
2021/10/20 21:55:16;;;;;;;2.97;2.00;;;14.40;99.90;;;;;;5046868;28;20088;-77
2021/10/20 21:57:43;;;;;;;3.33;1.92;;;14.40;99.90;;;;;;5046973;28;20125;-77
2021/10/20 22:00:15;;;;;;;2.95;1.80;;;14.40;99.90;;;;;;5028603;28;20135;-77
2021/10/20 22:02:43;;;;;;;6.68;2.13;;;14.40;99.90;;;;;;5055685;28;20147;-77
2021/10/20 22:05:11;;;;;;;4.82;2.10;;;14.40;99.90;;;;;;5034213;28;20045;-76
2021/10/20 22:07:38;;;;;;;4.00;1.80;;;14.40;99.90;;;;;;5038058;28;20090;-77
2021/10/20 22:10:05;;;;;;;5.95;1.95;;;14.40;99.90;;;;;;5035297;28;20408;-77
2021/10/20 22:12:43;;;;;;;6.43;1.90;;;14.40;99.90;;;;;;5030058;28;20048;-77
2021/10/20 22:15:10;;;;;;;3.00;2.17;;;14.40;99.90;;;;;;5046443;28;20394;-76
2021/10/20 22:17:37;;;;;;;5.35;1.90;;;14.30;99.90;;;;;;5055614;28;20745;-76
2021/10/20 22:20:04;;;;;;;3.75;2.33;;;14.30;99.90;;;;;;5042836;28;20161;-77
2021/10/20 22:22:31;;;;;;;2.53;1.92;;;14.40;99.90;;;;;;5028419;28;20771;-76
2021/10/20 22:24:58;;;;;;;5.40;2.92;;;14.30;99.90;;;;;;5028457;28;20582;-76
2021/10/20 22:27:37;;;;;;;7.90;2.40;;;14.30;99.90;;;;;;5047346;28;20806;-76
2021/10/20 22:30:05;;;;;;;6.93;2.35;;;14.30;99.90;;;;;;5045310;28;20894;-76
2021/10/20 22:32:31;;;;;;;4.47;1.92;;;14.40;99.90;;;;;;5055970;28;20135;-76
2021/10/20 22:34:58;;;;;;;6.07;2.33;;;14.40;99.90;;;;;;5047882;28;20457;-76
2021/10/20 22:37:27;;;;;;;3.45;2.50;;;14.50;99.90;;;;;;5046110;28;20053;-76
2021/10/20 22:39:54;;;;;;;5.53;2.42;;;14.50;99.90;;;;;;5044461;28;20621;-76
2021/10/20 22:42:21;;;;;;;4.00;2.30;;;14.50;99.90;;;;;;5051429;28;20593;-76
2021/10/20 22:44:48;;;;;;;4.45;2.47;;;14.50;99.90;;;;;;5026884;28;20179;-76
2021/10/20 22:47:15;;;;;;;4.78;3.08;;;14.50;99.90;;;;;;5027905;28;20150;-76